createdAt,value
2019-05-11T00:01:17.628Z,10.24
2019-05-11T00:03:45.669Z,10.24
2019-05-11T00:06:13.127Z,10.24
2019-05-11T00:08:40.971Z,10.23
2019-05-11T00:11:08.122Z,10.22
2019-05-11T00:13:35.808Z,10.21
2019-05-11T00:16:03.598Z,10.21
2019-05-11T00:18:31.412Z,10.19
2019-05-11T00:20:59.174Z,10.17
2019-05-11T00:23:27.162Z,10.14
2019-05-11T00:25:54.708Z,10.09
2019-05-11T00:28:21.354Z,10.05
2019-05-11T00:30:48.925Z,10.05
2019-05-11T00:33:16.126Z,10.03
2019-05-11T00:35:43.953Z,10.03
2019-05-11T00:38:12.084Z,10.04
2019-05-11T00:40:39.825Z,10.04
2019-05-11T00:43:07.520Z,10.05
2019-05-11T00:45:34.539Z,10.01
2019-05-11T00:48:02.639Z,10.00
2019-05-11T00:50:38.646Z,9.97
2019-05-11T00:52:59.550Z,9.92
2019-05-11T00:55:26.238Z,9.90
2019-05-11T00:57:53.375Z,9.88
2019-05-11T01:00:21.350Z,9.84
2019-05-11T01:02:48.720Z,9.82
2019-05-11T01:05:16.359Z,9.78
2019-05-11T01:07:43.462Z,9.76
2019-05-11T01:10:22.960Z,9.73
2019-05-11T01:12:40.263Z,9.68
2019-05-11T01:15:07.746Z,9.64
2019-05-11T01:17:35.097Z,9.63
2019-05-11T01:20:03.054Z,9.63
2019-05-11T01:22:30.742Z,9.61
2019-05-11T01:24:58.181Z,8.09
2019-05-11T01:27:25.381Z,9.58
2019-05-11T01:29:52.858Z,9.57
2019-05-11T01:32:21.218Z,9.54
2019-05-11T01:34:48.575Z,9.51
2019-05-11T01:37:15.484Z,9.52
2019-05-11T01:39:42.699Z,9.53
2019-05-11T01:42:10.366Z,9.54
2019-05-11T01:44:37.994Z,9.56
2019-05-11T01:47:05.571Z,9.57
2019-05-11T01:49:32.852Z,9.59
2019-05-11T01:52:00.787Z,9.59
2019-05-11T01:54:28.102Z,9.60
2019-05-11T01:56:56.245Z,9.60
2019-05-11T01:59:24.845Z,9.58
2019-05-11T02:01:52.868Z,9.56
2019-05-11T02:04:20.641Z,9.53
2019-05-11T02:06:48.495Z,9.50
2019-05-11T02:09:16.396Z,9.49
2019-05-11T02:11:44.615Z,9.51
2019-05-11T02:14:11.980Z,9.49
2019-05-11T02:16:40.226Z,9.50
2019-05-11T02:19:07.442Z,9.51
2019-05-11T02:21:34.686Z,9.50
2019-05-11T02:24:02.411Z,9.50
2019-05-11T02:26:30.525Z,9.50
2019-05-11T02:28:58.170Z,9.50
2019-05-11T02:31:25.655Z,9.49
2019-05-11T02:33:53.836Z,9.50
2019-05-11T02:36:21.337Z,9.50
2019-05-11T02:38:48.828Z,9.48
2019-05-11T02:41:33.286Z,9.44
2019-05-11T02:43:46.301Z,9.45
2019-05-11T02:46:13.227Z,9.42
2019-05-11T02:48:40.808Z,9.41
2019-05-11T02:51:08.280Z,9.37
2019-05-11T02:53:35.355Z,9.35
2019-05-11T02:56:03.030Z,7.85
2019-05-11T02:58:30.231Z,9.31
2019-05-11T03:00:57.307Z,9.30
2019-05-11T03:03:24.812Z,9.30
2019-05-11T03:05:52.412Z,9.31
2019-05-11T03:08:19.811Z,9.29
2019-05-11T03:10:46.572Z,9.33
2019-05-11T03:13:14.754Z,9.36
2019-05-11T03:15:42.572Z,9.37
2019-05-11T03:18:09.454Z,9.39
2019-05-11T03:20:36.860Z,9.40
2019-05-11T03:23:03.916Z,9.43
2019-05-11T03:25:31.413Z,9.45
2019-05-11T03:27:58.275Z,9.48
2019-05-11T03:30:25.229Z,8.03
2019-05-11T03:32:52.389Z,9.53
2019-05-11T03:35:19.918Z,9.53
2019-05-11T03:37:47.783Z,9.54
2019-05-11T03:40:15.954Z,9.55
2019-05-11T03:42:43.527Z,9.58
2019-05-11T03:45:11.181Z,9.61
2019-05-11T03:47:38.372Z,9.60
2019-05-11T03:50:06.336Z,9.62
2019-05-11T03:52:33.166Z,9.63
2019-05-11T03:55:00.400Z,9.63
2019-05-11T03:57:28.039Z,9.59
2019-05-11T03:59:55.673Z,9.54
2019-05-11T04:02:22.997Z,9.50
2019-05-11T04:04:50.626Z,9.50
2019-05-11T04:07:18.406Z,9.50
2019-05-11T04:09:46.159Z,9.51
2019-05-11T04:12:32.897Z,9.50
2019-05-11T04:14:43.369Z,9.49
2019-05-11T04:17:10.458Z,9.49
2019-05-11T04:19:38.245Z,9.49
2019-05-11T04:22:05.421Z,9.49
2019-05-11T04:24:32.872Z,9.46
2019-05-11T04:27:00.111Z,9.49
2019-05-11T04:29:27.006Z,9.49
2019-05-11T04:31:54.283Z,9.52
2019-05-11T04:34:21.848Z,9.53
2019-05-11T04:36:48.897Z,9.56
2019-05-11T04:39:16.846Z,9.58
2019-05-11T04:41:44.397Z,9.55
2019-05-11T04:44:12.397Z,9.55
2019-05-11T04:46:39.841Z,9.57
2019-05-11T04:49:06.820Z,9.59
2019-05-11T04:51:33.899Z,9.60
2019-05-11T04:54:01.567Z,9.58
2019-05-11T04:56:28.709Z,9.55
2019-05-11T04:58:56.190Z,9.55
2019-05-11T05:01:23.858Z,9.58
2019-05-11T05:03:54.257Z,9.61
2019-05-11T05:06:24.016Z,9.66
2019-05-11T05:08:50.353Z,9.69
2019-05-11T05:11:17.751Z,9.71
2019-05-11T05:13:44.688Z,9.75
2019-05-11T05:16:12.292Z,9.80
2019-05-11T05:18:39.700Z,9.82
2019-05-11T05:21:06.986Z,9.85
2019-05-11T05:23:33.741Z,9.88
2019-05-11T05:26:00.765Z,9.91
2019-05-11T05:28:28.588Z,8.51
2019-05-11T05:30:56.261Z,10.00
2019-05-11T05:33:23.054Z,10.05
2019-05-11T05:35:50.289Z,10.11
2019-05-11T05:38:17.946Z,10.12
2019-05-11T05:40:45.131Z,10.09
2019-05-11T05:43:25.605Z,10.11
2019-05-11T05:45:42.109Z,10.11
2019-05-11T05:48:08.977Z,10.06
2019-05-11T05:50:35.828Z,10.04
2019-05-11T05:53:03.013Z,10.03
2019-05-11T05:55:30.044Z,10.02
2019-05-11T05:57:57.431Z,8.56
2019-05-11T06:00:25.217Z,10.04
2019-05-11T06:02:52.225Z,10.01
2019-05-11T06:05:19.997Z,9.98
2019-05-11T06:07:46.647Z,9.99
2019-05-11T06:10:13.705Z,9.98
2019-05-11T06:12:40.441Z,9.95
2019-05-11T06:15:08.321Z,9.98
2019-05-11T06:17:35.742Z,10.02
2019-05-11T06:20:04.440Z,10.09
2019-05-11T06:22:32.460Z,10.16
2019-05-11T06:24:59.723Z,10.20
2019-05-11T06:27:27.176Z,10.17
2019-05-11T06:29:54.840Z,10.20
2019-05-11T06:32:22.010Z,10.24
2019-05-11T06:34:48.832Z,10.27
2019-05-11T06:37:16.788Z,10.29
2019-05-11T06:39:43.650Z,10.32
2019-05-11T06:42:11.713Z,10.37
2019-05-11T06:44:39.176Z,10.40
2019-05-11T06:47:06.047Z,10.47
2019-05-11T06:49:33.278Z,10.53
2019-05-11T06:52:00.677Z,10.57
2019-05-11T06:54:28.039Z,10.60
2019-05-11T06:56:54.818Z,10.63
2019-05-11T06:59:22.041Z,10.62
2019-05-11T07:01:48.885Z,10.59
2019-05-11T07:04:15.925Z,10.57
2019-05-11T07:06:42.957Z,10.60
2019-05-11T07:09:09.890Z,10.63
2019-05-11T07:11:37.133Z,10.25
2019-05-11T07:14:19.163Z,10.73
2019-05-11T07:16:33.003Z,10.75
2019-05-11T07:19:00.098Z,10.79
2019-05-11T07:21:26.844Z,10.81
2019-05-11T07:23:53.784Z,9.38
2019-05-11T07:26:21.302Z,10.86
2019-05-11T07:28:48.062Z,10.89
2019-05-11T07:31:14.977Z,9.50
2019-05-11T07:33:42.071Z,10.93
2019-05-11T07:36:09.228Z,10.98
2019-05-11T07:38:38.206Z,11.01
2019-05-11T07:41:05.474Z,11.06
2019-05-11T07:43:32.730Z,11.13
2019-05-11T07:45:59.484Z,11.19
2019-05-11T07:48:27.909Z,11.22
2019-05-11T07:50:55.430Z,11.26
2019-05-11T07:53:22.325Z,11.28
2019-05-11T07:55:49.070Z,11.32
2019-05-11T07:58:19.859Z,11.34
2019-05-11T08:00:45.027Z,11.35
2019-05-11T08:03:11.721Z,11.34
2019-05-11T08:05:38.716Z,11.37
2019-05-11T08:08:08.557Z,11.36
2019-05-11T08:10:34.724Z,9.87
2019-05-11T08:13:01.901Z,11.38
2019-05-11T08:15:28.649Z,11.40
2019-05-11T08:17:57.810Z,11.42
2019-05-11T08:20:24.387Z,11.43
2019-05-11T08:22:51.053Z,11.43
2019-05-11T08:25:18.344Z,11.46
2019-05-11T08:27:48.202Z,11.48
2019-05-11T08:30:14.848Z,11.49
2019-05-11T08:32:42.780Z,11.48
2019-05-11T08:35:10.468Z,11.46
2019-05-11T08:37:38.776Z,11.46
2019-05-11T08:40:07.902Z,11.47
2019-05-11T08:42:34.468Z,11.50
2019-05-11T08:45:16.160Z,11.56
2019-05-11T08:47:31.052Z,11.62
2019-05-11T08:49:58.919Z,11.64
2019-05-11T08:52:27.453Z,11.46
2019-05-11T08:54:54.799Z,11.38
2019-05-11T08:57:21.559Z,11.32
2019-05-11T08:59:48.694Z,11.24
2019-05-11T09:02:18.456Z,11.17
2019-05-11T09:04:44.606Z,11.16
2019-05-11T09:07:11.589Z,11.17
2019-05-11T09:09:38.296Z,11.15
2019-05-11T09:12:07.675Z,11.11
2019-05-11T09:14:34.282Z,11.12
2019-05-11T09:17:00.969Z,11.17
2019-05-11T09:19:28.663Z,11.22
2019-05-11T09:21:55.642Z,11.29
2019-05-11T09:24:22.425Z,11.29
2019-05-11T09:26:49.690Z,11.28
2019-05-11T09:29:17.939Z,9.88
2019-05-11T09:31:44.865Z,11.33
2019-05-11T09:34:11.691Z,11.35
2019-05-11T09:36:39.253Z,11.39
2019-05-11T09:39:08.381Z,11.42
2019-05-11T09:41:38.112Z,11.41
2019-05-11T09:44:04.832Z,11.36
2019-05-11T09:46:31.840Z,11.35
2019-05-11T09:48:59.233Z,11.38
2019-05-11T09:51:28.579Z,11.41
2019-05-11T09:53:54.862Z,11.46
2019-05-11T09:56:21.747Z,11.51
2019-05-11T09:58:48.893Z,11.61
2019-05-11T10:01:18.023Z,11.71
2019-05-11T10:03:44.716Z,11.74
2019-05-11T10:06:11.786Z,11.78
2019-05-11T10:08:38.590Z,11.82
2019-05-11T10:11:05.569Z,11.84
2019-05-11T10:13:32.286Z,11.89
2019-05-11T10:16:06.807Z,11.93
2019-05-11T10:18:28.343Z,11.93
2019-05-11T10:20:55.369Z,11.92
2019-05-11T10:23:22.014Z,11.93
2019-05-11T10:25:49.066Z,11.95
2019-05-11T10:28:17.872Z,11.95
2019-05-11T10:30:44.431Z,10.70
2019-05-11T10:33:11.639Z,11.99
2019-05-11T10:35:38.496Z,12.03
2019-05-11T10:38:05.275Z,12.01
2019-05-11T10:40:32.214Z,12.04
2019-05-11T10:42:59.457Z,12.08
2019-05-11T10:45:28.482Z,12.10
2019-05-11T10:47:58.602Z,12.14
2019-05-11T10:50:24.030Z,12.20
2019-05-11T10:52:50.807Z,12.21
2019-05-11T10:55:19.355Z,12.15
2019-05-11T10:57:48.576Z,12.08
2019-05-11T11:00:17.815Z,10.73
2019-05-11T11:02:44.797Z,12.04
2019-05-11T11:05:12.127Z,12.00
2019-05-11T11:07:39.392Z,11.94
2019-05-11T11:10:08.566Z,11.94
2019-05-11T11:12:35.211Z,11.85
2019-05-11T11:15:02.706Z,11.78
2019-05-11T11:17:30.336Z,11.70
2019-05-11T11:19:58.029Z,11.61
2019-05-11T11:22:37.037Z,11.54
2019-05-11T11:24:53.999Z,10.01
2019-05-11T11:27:20.868Z,11.45
2019-05-11T11:29:47.911Z,11.42
2019-05-11T11:32:15.045Z,9.93
2019-05-11T11:34:41.950Z,9.82
2019-05-11T11:37:08.819Z,11.29
2019-05-11T11:39:35.545Z,11.29
2019-05-11T11:42:03.234Z,11.26
2019-05-11T11:44:30.439Z,11.21
2019-05-11T11:46:58.996Z,11.18
2019-05-11T11:49:28.244Z,11.18
2019-05-11T11:51:55.134Z,11.18
2019-05-11T11:54:21.957Z,11.13
2019-05-11T11:56:48.918Z,11.14
2019-05-11T11:59:17.840Z,11.15
2019-05-11T12:01:45.025Z,11.18
2019-05-11T12:04:11.783Z,11.21
2019-05-11T12:06:39.351Z,9.82
2019-05-11T12:09:08.854Z,11.35
2019-05-11T12:11:38.103Z,11.40
2019-05-11T12:14:05.385Z,11.38
2019-05-11T12:16:32.133Z,11.39
2019-05-11T12:18:59.208Z,11.36
2019-05-11T12:21:27.712Z,11.30
2019-05-11T12:23:54.956Z,11.26
2019-05-11T12:26:22.977Z,11.28
2019-05-11T12:28:49.758Z,11.28
2019-05-11T12:31:18.344Z,11.27
2019-05-11T12:33:47.944Z,11.02
2019-05-11T12:36:14.301Z,10.03
2019-05-11T12:38:41.004Z,11.51
2019-05-11T12:41:08.857Z,11.54
2019-05-11T12:43:35.676Z,11.60
2019-05-11T12:46:02.582Z,11.62
2019-05-11T12:48:29.416Z,11.64
2019-05-11T12:50:58.648Z,11.62
2019-05-11T12:53:27.942Z,10.18
2019-05-11T12:55:54.486Z,11.55
2019-05-11T12:58:21.613Z,11.53
2019-05-11T13:00:48.447Z,11.46
2019-05-11T13:03:15.246Z,11.43
2019-05-11T13:05:42.397Z,11.42
2019-05-11T13:08:09.262Z,11.40
2019-05-11T13:10:37.657Z,11.39
2019-05-11T13:13:05.702Z,11.36
2019-05-11T13:15:33.123Z,11.36
2019-05-11T13:17:59.907Z,11.37
2019-05-11T13:20:28.574Z,11.35
2019-05-11T13:22:55.889Z,11.32
2019-05-11T13:25:22.662Z,11.31
2019-05-11T13:27:49.466Z,11.30
2019-05-11T13:30:18.417Z,11.31
2019-05-11T13:32:45.162Z,11.33
2019-05-11T13:35:12.389Z,11.33
2019-05-11T13:37:39.248Z,11.27
2019-05-11T13:40:07.767Z,11.26
2019-05-11T13:42:35.292Z,11.25
2019-05-11T13:45:02.908Z,11.22
2019-05-11T13:47:29.661Z,11.24
2019-05-11T13:49:58.405Z,11.25
2019-05-11T13:52:25.336Z,11.28
2019-05-11T13:54:52.217Z,11.25
2019-05-11T13:57:19.412Z,11.21
2019-05-11T13:59:47.723Z,11.20
2019-05-11T14:02:14.764Z,11.23
2019-05-11T14:04:41.931Z,11.24
2019-05-11T14:07:08.783Z,11.26
2019-05-11T14:09:37.871Z,11.29
2019-05-11T14:12:04.967Z,11.31
2019-05-11T14:14:31.721Z,9.89
2019-05-11T14:16:58.968Z,11.32
2019-05-11T14:19:28.235Z,11.35
2019-05-11T14:21:55.127Z,11.35
2019-05-11T14:24:21.976Z,11.33
2019-05-11T14:26:48.962Z,11.22
2019-05-11T14:29:17.760Z,11.08
2019-05-11T14:31:44.941Z,10.96
2019-05-11T14:34:11.780Z,10.78
2019-05-11T14:36:38.972Z,10.58
2019-05-11T14:39:10.127Z,10.46
2019-05-11T14:41:38.315Z,10.39
2019-05-11T14:44:05.362Z,10.27
2019-05-11T14:46:32.370Z,10.23
2019-05-11T14:48:59.476Z,10.13
2019-05-11T14:51:28.267Z,10.06
2019-05-11T14:53:58.913Z,10.05
2019-05-11T14:56:24.203Z,10.06
2019-05-11T14:58:51.257Z,7.25
2019-05-11T15:01:18.576Z,10.02
2019-05-11T15:03:48.350Z,10.01
2019-05-11T15:06:14.774Z,9.98
2019-05-11T15:08:41.507Z,8.83
2019-05-11T15:11:08.614Z,9.93
2019-05-11T15:13:40.446Z,8.42
2019-05-11T15:16:12.475Z,9.80
2019-05-11T15:18:42.147Z,9.79
2019-05-11T15:21:08.598Z,9.72
2019-05-11T15:23:37.622Z,9.71
2019-05-11T15:26:07.146Z,9.64
2019-05-11T15:28:33.442Z,9.60
2019-05-11T15:31:00.298Z,9.63
2019-05-11T15:33:28.061Z,9.61
2019-05-11T15:35:54.861Z,9.59
2019-05-11T15:38:23.080Z,9.55
2019-05-11T15:40:50.804Z,9.54
2019-05-11T15:43:18.029Z,9.54
2019-05-11T15:45:45.334Z,9.52
2019-05-11T15:48:12.263Z,9.52
2019-05-11T15:50:40.193Z,9.49
2019-05-11T15:53:08.766Z,9.50
2019-05-11T15:55:38.537Z,9.50
2019-05-11T15:58:04.846Z,9.50
2019-05-11T16:00:32.123Z,9.49
2019-05-11T16:02:59.027Z,9.49
2019-05-11T16:05:27.999Z,9.52
2019-05-11T16:07:55.195Z,9.51
2019-05-11T16:10:22.032Z,9.52
2019-05-11T16:12:49.159Z,9.50
2019-05-11T16:15:19.183Z,9.49
2019-05-11T16:17:48.508Z,9.44
2019-05-11T16:20:17.478Z,9.41
2019-05-11T16:22:44.068Z,9.41
2019-05-11T16:25:11.543Z,9.41
2019-05-11T16:27:38.215Z,9.42
2019-05-11T16:30:06.944Z,9.39
2019-05-11T16:32:34.437Z,9.40
2019-05-11T16:35:02.093Z,9.39
2019-05-11T16:37:29.883Z,9.36
2019-05-11T16:39:58.275Z,9.33
2019-05-11T16:42:27.626Z,9.34
2019-05-11T16:44:57.615Z,9.34
2019-05-11T16:47:24.109Z,9.29
2019-05-11T16:49:50.727Z,7.72
2019-05-11T16:52:18.388Z,9.28
2019-05-11T16:54:47.666Z,9.26
2019-05-11T16:57:13.992Z,9.24
2019-05-11T16:59:58.428Z,9.24
2019-05-11T17:02:27.405Z,9.24
2019-05-11T17:08:38.342Z,9.22
2019-05-11T17:11:04.968Z,9.22
2019-05-11T17:13:31.887Z,9.24
2019-05-11T17:15:58.454Z,9.23
2019-05-11T17:18:24.922Z,9.24
2019-05-11T17:20:54.177Z,9.26
2019-05-11T17:23:20.504Z,9.27
2019-05-11T17:25:48.397Z,8.89
2019-05-11T17:28:14.817Z,9.28
2019-05-11T17:30:41.685Z,9.27
2019-05-11T17:33:09.009Z,9.27
2019-05-11T17:35:36.318Z,9.25
2019-05-11T17:38:03.349Z,9.24
2019-05-11T17:40:30.409Z,9.21
2019-05-11T17:42:59.283Z,9.21
2019-05-11T17:45:25.942Z,9.16
2019-05-11T17:47:51.999Z,9.10
2019-05-11T17:50:19.320Z,9.04
2019-05-11T17:52:52.019Z,8.98
2019-05-11T17:55:18.806Z,8.94
2019-05-11T17:57:46.107Z,8.92
2019-05-11T18:00:13.171Z,8.90
2019-05-11T18:02:40.860Z,8.89
2019-05-11T18:05:09.516Z,8.86
2019-05-11T18:07:39.783Z,8.85
2019-05-11T18:10:08.357Z,8.82
2019-05-11T18:12:38.836Z,8.80
2019-05-11T18:15:08.942Z,8.78
2019-05-11T18:17:36.903Z,8.73
2019-05-11T18:20:17.279Z,8.73
2019-05-11T18:22:41.293Z,8.69
2019-05-11T18:25:09.660Z,8.71
2019-05-11T18:27:38.640Z,8.71
2019-05-11T18:30:14.918Z,8.72
2019-05-11T18:32:43.051Z,8.71
2019-05-11T18:35:10.810Z,8.69
2019-05-11T18:37:39.782Z,8.65
2019-05-11T18:40:07.608Z,8.61
2019-05-11T18:42:34.160Z,8.60
2019-05-11T18:45:02.628Z,8.58
2019-05-11T18:47:30.290Z,8.58
2019-05-11T18:49:58.775Z,8.53
2019-05-11T18:52:25.827Z,8.52
2019-05-11T18:54:52.735Z,8.50
2019-05-11T18:57:19.231Z,8.48
2019-05-11T18:59:48.255Z,8.49
2019-05-11T19:02:16.090Z,8.49
2019-05-11T19:04:42.280Z,8.47
2019-05-11T19:07:16.401Z,8.47
2019-05-11T19:09:38.657Z,8.44
2019-05-11T19:12:04.979Z,8.44
2019-05-11T19:14:31.325Z,8.43
2019-05-11T19:16:59.123Z,8.42
2019-05-11T19:19:25.529Z,8.42
2019-05-11T19:21:53.989Z,8.42
2019-05-11T19:24:22.427Z,8.41
2019-05-11T19:26:54.681Z,8.41
2019-05-11T19:29:20.946Z,8.38
2019-05-11T19:31:48.186Z,8.39
2019-05-11T19:34:14.649Z,8.40
2019-05-11T19:36:41.265Z,8.37
2019-05-11T19:39:09.240Z,8.33
2019-05-11T19:41:36.523Z,8.28
2019-05-11T19:44:03.694Z,8.17
2019-05-11T19:46:31.156Z,8.09
2019-05-11T19:49:01.678Z,7.97
2019-05-11T19:51:29.139Z,7.87
2019-05-11T19:53:57.605Z,7.80
2019-05-11T19:56:24.297Z,7.71
2019-05-11T19:58:51.073Z,6.09
2019-05-11T20:01:18.753Z,7.55
2019-05-11T20:03:46.297Z,7.51
2019-05-11T20:06:13.170Z,7.48
2019-05-11T20:08:41.001Z,7.46
2019-05-11T20:11:08.373Z,7.45
2019-05-11T20:13:35.350Z,7.42
2019-05-11T20:16:02.404Z,7.44
2019-05-11T20:18:29.975Z,7.43
2019-05-11T20:20:58.202Z,7.43
2019-05-11T20:23:26.898Z,7.42
2019-05-11T20:25:58.202Z,7.41
2019-05-11T20:28:28.781Z,7.40
2019-05-11T20:30:55.461Z,7.38
2019-05-11T20:33:28.052Z,7.37
2019-05-11T20:35:55.322Z,7.36
2019-05-11T20:38:23.305Z,7.32
2019-05-11T20:40:49.936Z,7.32
2019-05-11T20:43:18.630Z,7.33
2019-05-11T20:45:49.266Z,7.32
2019-05-11T20:48:15.557Z,7.31
2019-05-11T20:50:42.278Z,7.29
2019-05-11T20:53:08.877Z,7.26
2019-05-11T20:55:37.537Z,7.27
2019-05-11T20:58:04.396Z,7.28
2019-05-11T21:00:30.687Z,7.28
2019-05-11T21:02:58.774Z,7.28
2019-05-11T21:05:26.406Z,7.30
2019-05-11T21:07:53.626Z,7.29
2019-05-11T21:10:22.446Z,7.29
2019-05-11T21:12:49.766Z,7.30
2019-05-11T21:15:16.097Z,7.32
2019-05-11T21:17:42.415Z,7.31
2019-05-11T21:20:09.753Z,7.30
2019-05-11T21:22:40.054Z,7.32
2019-05-11T21:25:12.180Z,7.34
2019-05-11T21:27:39.386Z,7.35
2019-05-11T21:30:10.466Z,7.36
2019-05-11T21:32:38.441Z,7.38
2019-05-11T21:35:05.252Z,7.41
2019-05-11T21:37:31.533Z,7.43
2019-05-11T21:39:58.177Z,7.42
2019-05-11T21:42:24.484Z,7.44
2019-05-11T21:44:50.685Z,7.45
2019-05-11T21:47:18.314Z,7.45
2019-05-11T21:49:44.840Z,7.46
2019-05-11T21:52:12.358Z,7.47
2019-05-11T21:54:39.532Z,7.45
2019-05-11T21:57:07.711Z,7.48
2019-05-11T21:59:33.934Z,7.49
2019-05-11T22:02:00.258Z,7.48
2019-05-11T22:04:28.476Z,7.49
2019-05-11T22:06:54.961Z,7.48
2019-05-11T22:09:21.216Z,7.46
2019-05-11T22:11:49.377Z,7.46
2019-05-11T22:14:15.906Z,7.45
2019-05-11T22:16:42.165Z,7.45
2019-05-11T22:19:08.996Z,7.48
2019-05-11T22:21:35.707Z,7.49
2019-05-11T22:24:01.898Z,7.49
2019-05-11T22:26:28.796Z,7.50
2019-05-11T22:28:56.027Z,7.51
2019-05-11T22:31:22.401Z,7.53
2019-05-11T22:33:48.689Z,7.56
2019-05-11T22:36:15.464Z,7.57
2019-05-11T22:38:41.609Z,7.55
2019-05-11T22:41:09.046Z,7.58
2019-05-11T22:43:37.883Z,7.58
2019-05-11T22:46:04.020Z,7.56
2019-05-11T22:48:30.398Z,7.58
2019-05-11T22:50:58.646Z,7.59
2019-05-11T22:53:43.403Z,7.55
2019-05-11T22:55:55.198Z,7.52
2019-05-11T22:58:21.693Z,7.52
2019-05-11T23:00:47.884Z,7.52
2019-05-11T23:03:14.016Z,7.55
2019-05-11T23:05:41.125Z,7.57
2019-05-11T23:08:07.760Z,7.59
2019-05-11T23:10:34.122Z,7.61
2019-05-11T23:13:00.650Z,7.65
2019-05-11T23:15:26.875Z,7.68
2019-05-11T23:17:53.088Z,7.70
2019-05-11T23:20:19.606Z,7.73
2019-05-11T23:22:57.066Z,7.76
2019-05-11T23:25:18.425Z,7.78
2019-05-11T23:27:45.544Z,7.80
2019-05-11T23:30:13.962Z,7.81
2019-05-11T23:32:40.234Z,7.82
2019-05-11T23:35:08.433Z,7.83
2019-05-11T23:37:34.707Z,7.86
2019-05-11T23:40:01.527Z,7.86
2019-05-11T23:42:31.077Z,7.87
2019-05-11T23:44:58.983Z,7.87
2019-05-11T23:47:28.797Z,7.88
2019-05-11T23:49:55.473Z,6.50
2019-05-11T23:52:22.209Z,7.90
2019-05-11T23:54:48.932Z,7.89
2019-05-11T23:57:15.107Z,7.92
2019-05-11T23:59:41.571Z,7.92
